Aeroporto :
LOGIN :

Iscrizione | Disclaimer

   EN    FR    IT 

 










Sommario :    VFR   VFR Marginale   IFR   IFR Intensivo   IFR Molto Intensivo
Visibilità : 
Base nubi : 
>= 8 km
>= 3000ft
5 / 8 km
1000 / 3000 ft
1500m / 5 km
500 / 1000 ft
800 / 1500m
200 / 500 ft
< 800m
< 200 ft
Simboli :   Temporali  Nebbia  Neve Forte  Precipitazioni Forti  Vento > 20 kt
SIGMETs :   Varie  Temporali  Ghiacco  Turbolenza  Onda orograficha  Ceneri Vulcaniche






- Altitudine del aeroporto : 70 ft
- Codice IATA : LEI


LEAM - Almeria

ULTIMO METAR :
  • 140600Z 10003KT 070V140 CAVOK 25/14 Q1015

METARs OBSOLETI :
  • 140530Z 05004KT 010V110 CAVOK 24/14 Q1015
  • 140500Z VRB03KT CAVOK 25/14 Q1015
  • 140430Z 07006KT CAVOK 24/14 Q1015
  • 140400Z 35007KT CAVOK 25/15 Q1015
  • 140330Z 35008KT 320V020 CAVOK 25/15 Q1015

TAF TAF LEAM
Valido dal 14 a 03 ore il 15 a 03 ore UTC


140200Z 1403/1503 VRB03KT CAVOK TX33/1414Z TN24/1405Z
PROB40
TEMPO 1403/1406 34010KT
BECMG 1409/1412 09014KT
PROB30 1415/1419 18007KT
BECMG 1423/1502 VRB02KT



MetMap, La meteo Aeronautica in un colpo d'occhio ! - Copyright ORBIFLY Dicembre 2007 - Disclaimer

ORBIFLY MET'MAP TEAM :

Programmazione e sviluppo : Alexandra Zaïnal
Concezione : Baudouin d'Aumeries
Aiuto per la programmazione : Marc-Olivier Méhu
Supporto tecnico e logistico : Manuel Goepfert
Aiuto per la traduzione : Arnaldo La Scala

Contatto : metmap@orbifly.com




FONTI E CREDITI :

   NOAA